createdAt,value
2022-11-16T00:00:47.934Z,10.71
2022-11-16T00:01:50.228Z,10.66
2022-11-16T00:02:52.555Z,10.62
2022-11-16T00:03:56.849Z,10.59
2022-11-16T00:04:59.023Z,10.55
2022-11-16T00:06:04.217Z,10.49
2022-11-16T00:07:07.152Z,10.50
2022-11-16T00:08:09.350Z,10.48
2022-11-16T00:09:23.846Z,10.39
2022-11-16T00:10:26.035Z,10.45
2022-11-16T00:11:28.211Z,10.53
2022-11-16T00:12:30.465Z,10.52
2022-11-16T00:13:34.185Z,10.52
2022-11-16T00:14:36.697Z,10.51
2022-11-16T00:15:38.878Z,10.60
2022-11-16T00:16:41.177Z,10.60
2022-11-16T00:17:43.434Z,10.50
2022-11-16T00:18:45.578Z,10.46
2022-11-16T00:19:47.801Z,10.49
2022-11-16T00:20:50.660Z,10.58
2022-11-16T00:21:53.693Z,10.45
2022-11-16T00:22:55.859Z,10.45
2022-11-16T00:23:58.139Z,10.46
2022-11-16T00:25:00.363Z,10.63
2022-11-16T00:26:04.838Z,10.73
2022-11-16T00:27:07.014Z,10.84
2022-11-16T00:28:09.994Z,10.94
2022-11-16T00:29:17.095Z,11.03
2022-11-16T00:30:19.660Z,11.06
2022-11-16T00:31:23.254Z,11.00
2022-11-16T00:32:25.922Z,10.88
2022-11-16T00:33:28.388Z,10.72
2022-11-16T00:34:30.600Z,10.67
2022-11-16T00:35:37.381Z,10.62
2022-11-16T00:36:39.622Z,10.55
2022-11-16T00:37:41.935Z,10.54
2022-11-16T00:38:44.113Z,10.53
2022-11-16T00:39:48.728Z,10.51
2022-11-16T00:40:50.940Z,10.50
2022-11-16T00:41:53.218Z,10.50
2022-11-16T00:42:55.416Z,10.48
2022-11-16T00:43:57.694Z,10.46
2022-11-16T00:44:59.825Z,10.46
2022-11-16T00:46:02.756Z,10.55
2022-11-16T00:47:05.180Z,10.47
2022-11-16T00:48:07.317Z,10.46
2022-11-16T00:49:10.240Z,10.50
2022-11-16T00:50:12.739Z,10.61
2022-11-16T00:51:14.928Z,10.67
2022-11-16T00:52:17.642Z,10.61
2022-11-16T00:53:20.897Z,10.70
2022-11-16T00:54:23.360Z,10.85
2022-11-16T00:55:25.793Z,10.91
2022-11-16T00:56:28.141Z,10.95
2022-11-16T00:57:30.488Z,10.99
2022-11-16T00:58:32.969Z,11.00
2022-11-16T00:59:40.238Z,10.87
2022-11-16T01:00:43.166Z,10.82
2022-11-16T01:01:45.576Z,10.81
2022-11-16T01:02:47.822Z,10.95
2022-11-16T01:03:50.078Z,11.01
2022-11-16T01:04:52.292Z,11.01
2022-11-16T01:06:00.470Z,11.01
2022-11-16T01:07:02.695Z,11.01
2022-11-16T01:08:05.188Z,11.01
2022-11-16T01:09:07.385Z,10.95
2022-11-16T01:10:12.740Z,10.94
2022-11-16T01:11:37.578Z,10.89
2022-11-16T01:12:40.345Z,10.91
2022-11-16T01:13:42.545Z,10.95
2022-11-16T01:14:46.781Z,10.92
2022-11-16T01:15:49.025Z,10.97
2022-11-16T01:16:51.258Z,11.01
2022-11-16T01:17:55.563Z,11.05
2022-11-16T01:18:57.851Z,10.87
2022-11-16T01:20:00.846Z,10.87
2022-11-16T01:21:06.396Z,10.88
2022-11-16T01:22:08.819Z,10.96
2022-11-16T01:23:10.963Z,10.96
2022-11-16T01:24:13.233Z,10.88
2022-11-16T01:25:15.988Z,10.70
2022-11-16T01:26:18.370Z,10.62
2022-11-16T01:27:21.140Z,10.43
2022-11-16T01:28:23.369Z,10.39
2022-11-16T01:29:29.087Z,10.42
2022-11-16T01:30:34.251Z,10.52
2022-11-16T01:31:43.187Z,10.57
2022-11-16T01:32:45.412Z,10.64
2022-11-16T01:33:48.222Z,10.56
2022-11-16T01:34:57.701Z,10.56
2022-11-16T01:36:14.528Z,10.51
2022-11-16T01:37:18.081Z,10.46
2022-11-16T01:38:20.656Z,10.41
2022-11-16T01:39:23.229Z,10.30
2022-11-16T01:40:29.797Z,10.23
2022-11-16T01:41:32.267Z,10.17
2022-11-16T01:42:37.823Z,10.20
2022-11-16T01:44:14.711Z,10.31
2022-11-16T01:45:46.366Z,10.36
2022-11-16T01:46:49.929Z,10.24
2022-11-16T01:47:53.984Z,10.20
2022-11-16T01:49:05.435Z,10.22
2022-11-16T01:50:12.006Z,10.22
2022-11-16T01:51:17.092Z,10.23
2022-11-16T01:52:23.019Z,10.23
2022-11-16T01:53:25.824Z,10.21
2022-11-16T01:54:34.945Z,10.22
2022-11-16T01:55:37.324Z,10.22
2022-11-16T01:57:11.922Z,10.22
2022-11-16T01:58:23.121Z,10.28
2022-11-16T01:59:32.043Z,10.26
2022-11-16T02:01:40.053Z,10.06
2022-11-16T02:02:42.904Z,10.09
2022-11-16T02:03:55.488Z,10.06
2022-11-16T02:04:59.487Z,10.02
2022-11-16T02:06:27.591Z,9.97
2022-11-16T02:08:11.583Z,9.97
2022-11-16T02:09:51.661Z,9.96
2022-11-16T02:10:56.747Z,10.00
2022-11-16T02:12:28.960Z,10.03
2022-11-16T02:13:46.114Z,10.09
2022-11-16T02:14:56.494Z,10.09
2022-11-16T02:15:59.579Z,10.18
2022-11-16T02:17:35.379Z,10.31
2022-11-16T02:19:02.219Z,10.22
2022-11-16T02:20:24.403Z,10.12
2022-11-16T02:21:44.805Z,10.21
2022-11-16T02:23:04.278Z,10.25
2022-11-16T02:24:38.867Z,10.14
2022-11-16T02:26:01.738Z,10.26
2022-11-16T02:27:34.654Z,10.35
2022-11-16T02:29:13.074Z,10.29
2022-11-16T02:30:17.728Z,10.32
2022-11-16T02:31:27.249Z,10.37
2022-11-16T02:32:37.512Z,10.39
2022-11-16T02:33:41.847Z,10.39
2022-11-16T02:34:52.821Z,10.43
2022-11-16T02:36:00.157Z,10.46
2022-11-16T02:37:06.541Z,10.47
2022-11-16T02:38:17.193Z,10.48
2022-11-16T02:39:24.510Z,10.54
2022-11-16T02:40:31.447Z,10.53
2022-11-16T02:41:37.985Z,10.55
2022-11-16T02:42:45.640Z,10.55
2022-11-16T02:43:55.303Z,10.53
2022-11-16T02:45:02.133Z,10.51
2022-11-16T02:46:08.765Z,10.47
2022-11-16T02:47:16.709Z,10.53
2022-11-16T02:48:27.102Z,10.63
2022-11-16T02:49:33.162Z,10.63
2022-11-16T02:50:36.843Z,10.51
2022-11-16T02:51:40.050Z,10.51
2022-11-16T02:52:42.409Z,10.43
2022-11-16T02:54:08.621Z,10.48
2022-11-16T02:55:13.649Z,10.43
2022-11-16T02:56:19.638Z,10.34
2022-11-16T02:57:45.323Z,10.30
2022-11-16T02:58:48.989Z,10.38
2022-11-16T02:59:56.456Z,10.54
2022-11-16T03:01:03.120Z,10.66
2022-11-16T03:02:30.247Z,10.73
2022-11-16T03:03:51.217Z,10.54
2022-11-16T03:05:13.617Z,10.23
2022-11-16T03:06:28.949Z,10.25
2022-11-16T03:07:42.297Z,10.39
2022-11-16T03:08:49.123Z,10.31
2022-11-16T03:09:54.769Z,10.42
2022-11-16T03:11:23.052Z,10.33
2022-11-16T03:12:30.930Z,10.41
2022-11-16T03:13:37.017Z,10.29
2022-11-16T03:14:49.131Z,10.34
2022-11-16T03:15:55.679Z,10.25
2022-11-16T03:17:00.428Z,10.27
2022-11-16T03:18:07.880Z,10.20
2022-11-16T03:19:12.986Z,10.22
2022-11-16T03:20:20.657Z,10.26
2022-11-16T03:22:01.927Z,10.21
2022-11-16T03:23:10.106Z,10.16
2022-11-16T03:24:14.003Z,10.15
2022-11-16T03:25:19.263Z,10.21
2022-11-16T03:26:31.926Z,10.26
2022-11-16T03:27:57.020Z,10.29
2022-11-16T03:29:22.506Z,10.27
2022-11-16T03:30:30.252Z,10.30
2022-11-16T03:31:46.036Z,10.31
2022-11-16T03:33:19.283Z,10.31
2022-11-16T03:34:29.038Z,10.16
2022-11-16T03:35:38.531Z,10.13
2022-11-16T03:36:44.702Z,10.01
2022-11-16T03:37:48.931Z,10.04
2022-11-16T03:38:52.838Z,10.05
2022-11-16T03:39:58.691Z,10.17
2022-11-16T03:41:06.109Z,10.24
2022-11-16T03:42:13.940Z,10.33
2022-11-16T03:43:19.934Z,10.38
2022-11-16T03:44:22.694Z,10.44
2022-11-16T03:45:24.992Z,10.46
2022-11-16T03:46:29.073Z,10.55
2022-11-16T03:47:31.332Z,10.54
2022-11-16T03:48:38.543Z,10.52
2022-11-16T03:49:48.149Z,10.33
2022-11-16T03:50:53.174Z,10.40
2022-11-16T03:51:56.274Z,10.43
2022-11-16T03:52:58.849Z,10.36
2022-11-16T03:54:01.188Z,10.29
2022-11-16T03:55:04.910Z,10.22
2022-11-16T03:56:07.454Z,10.19
2022-11-16T03:57:15.383Z,10.29
2022-11-16T03:58:20.269Z,10.40
2022-11-16T03:59:23.041Z,10.44
2022-11-16T04:00:25.387Z,10.44
2022-11-16T04:01:28.627Z,10.47
2022-11-16T04:02:30.844Z,10.47
2022-11-16T04:03:34.199Z,10.55
2022-11-16T04:04:55.123Z,10.55
2022-11-16T04:06:17.224Z,10.37
2022-11-16T04:07:38.167Z,10.25
2022-11-16T04:08:58.907Z,10.18
2022-11-16T04:10:20.154Z,10.26
2022-11-16T04:11:41.755Z,10.34
2022-11-16T04:13:04.330Z,10.44
2022-11-16T04:14:38.101Z,10.47
2022-11-16T04:16:01.023Z,10.58
2022-11-16T04:17:21.844Z,10.67
2022-11-16T04:18:43.430Z,10.69
2022-11-16T04:20:09.516Z,10.70
2022-11-16T04:21:47.012Z,10.70
2022-11-16T04:23:14.846Z,10.74
2022-11-16T04:24:20.404Z,10.73
2022-11-16T04:25:27.196Z,10.79
2022-11-16T04:26:48.052Z,10.87
2022-11-16T04:28:09.472Z,10.93
2022-11-16T04:29:13.381Z,11.01
2022-11-16T04:30:15.997Z,11.03
2022-11-16T04:31:36.994Z,10.81
2022-11-16T04:33:02.086Z,10.70
2022-11-16T04:34:23.159Z,10.71
2022-11-16T04:35:47.430Z,10.65
2022-11-16T04:37:08.599Z,10.63
2022-11-16T04:38:11.129Z,10.56
2022-11-16T04:39:14.364Z,10.56
2022-11-16T04:40:17.547Z,10.49
2022-11-16T04:41:38.335Z,10.44
2022-11-16T04:42:40.587Z,10.54
2022-11-16T04:43:44.333Z,10.40
2022-11-16T04:45:05.154Z,10.35
2022-11-16T04:46:31.824Z,10.44
2022-11-16T04:47:34.255Z,10.58
2022-11-16T04:48:37.780Z,10.63
2022-11-16T04:49:40.036Z,10.72
2022-11-16T04:50:43.603Z,10.77
2022-11-16T04:51:45.993Z,10.89
2022-11-16T04:52:48.212Z,10.90
2022-11-16T04:53:51.536Z,10.95
2022-11-16T04:54:57.997Z,10.97
2022-11-16T04:56:01.600Z,10.97
2022-11-16T04:57:06.169Z,10.98
2022-11-16T04:58:08.531Z,10.89
2022-11-16T04:59:10.807Z,10.88
2022-11-16T05:00:13.458Z,10.75
2022-11-16T05:01:15.941Z,10.83
2022-11-16T05:02:18.661Z,10.83
2022-11-16T05:03:26.274Z,10.81
2022-11-16T05:04:28.492Z,10.81
2022-11-16T05:05:30.750Z,10.76
2022-11-16T05:06:34.627Z,10.61
2022-11-16T05:07:37.024Z,10.45
2022-11-16T05:08:46.216Z,10.53
2022-11-16T05:09:49.191Z,10.58
2022-11-16T05:10:52.059Z,10.52
2022-11-16T05:11:54.871Z,10.60
2022-11-16T05:12:57.671Z,10.64
2022-11-16T05:14:01.753Z,10.60
2022-11-16T05:15:05.087Z,10.62
2022-11-16T05:16:08.740Z,10.58
2022-11-16T05:17:11.169Z,10.53
2022-11-16T05:18:13.394Z,10.45
2022-11-16T05:19:34.158Z,10.49
2022-11-16T05:20:55.276Z,10.50
2022-11-16T05:21:57.979Z,10.50
2022-11-16T05:23:00.268Z,10.55
2022-11-16T05:24:31.033Z,10.56
2022-11-16T05:25:36.653Z,10.54
2022-11-16T05:26:41.642Z,10.53
2022-11-16T05:27:43.811Z,10.49
2022-11-16T05:28:46.366Z,10.49
2022-11-16T05:29:49.679Z,10.52
2022-11-16T05:30:54.304Z,10.43
2022-11-16T05:32:00.261Z,10.41
2022-11-16T05:33:02.765Z,10.34
2022-11-16T05:34:10.339Z,10.02
2022-11-16T05:35:13.114Z,10.02
2022-11-16T05:36:15.635Z,10.02
2022-11-16T05:37:19.065Z,10.04
2022-11-16T05:38:22.070Z,10.01
2022-11-16T05:39:28.674Z,10.02
2022-11-16T05:40:32.841Z,9.86
2022-11-16T05:41:35.964Z,9.80
2022-11-16T05:42:38.811Z,9.85
2022-11-16T05:43:41.118Z,9.86
2022-11-16T05:44:51.773Z,9.70
2022-11-16T05:45:54.060Z,9.63
2022-11-16T05:46:56.884Z,9.72
2022-11-16T05:47:59.207Z,9.80
2022-11-16T05:49:02.013Z,9.87
2022-11-16T05:50:04.471Z,9.90
2022-11-16T05:51:12.281Z,9.93
2022-11-16T05:52:14.489Z,9.97
2022-11-16T05:53:18.928Z,10.00
2022-11-16T05:54:27.194Z,9.97
2022-11-16T05:55:30.303Z,9.99
2022-11-16T05:56:34.099Z,9.96
2022-11-16T05:57:36.947Z,9.96
2022-11-16T05:58:39.123Z,10.01
2022-11-16T05:59:41.655Z,9.99
2022-11-16T06:00:46.352Z,10.03
2022-11-16T06:01:49.896Z,9.90
2022-11-16T06:02:52.304Z,9.92
2022-11-16T06:04:00.572Z,9.98
2022-11-16T06:05:03.965Z,9.94
2022-11-16T06:06:06.670Z,9.88
2022-11-16T06:07:10.134Z,9.88
2022-11-16T06:08:12.647Z,9.91
2022-11-16T06:09:15.014Z,9.92
2022-11-16T06:10:17.206Z,9.94
2022-11-16T06:11:23.012Z,9.80
2022-11-16T06:12:25.224Z,9.78
2022-11-16T06:13:27.521Z,9.85
2022-11-16T06:14:32.966Z,9.83
2022-11-16T06:15:38.115Z,9.90
2022-11-16T06:16:40.556Z,9.86
2022-11-16T06:17:45.027Z,9.90
2022-11-16T06:18:48.386Z,9.97
2022-11-16T06:19:51.616Z,9.99
2022-11-16T06:20:53.930Z,10.04
2022-11-16T06:21:56.911Z,10.06
2022-11-16T06:23:00.588Z,10.11
2022-11-16T06:24:08.730Z,10.14
2022-11-16T06:25:11.804Z,10.17
2022-11-16T06:26:17.733Z,10.15
2022-11-16T06:27:21.162Z,10.13
2022-11-16T06:28:23.712Z,10.17
2022-11-16T06:29:25.972Z,10.08
2022-11-16T06:30:28.999Z,10.02
2022-11-16T06:31:31.547Z,10.04
2022-11-16T06:32:36.348Z,10.02
2022-11-16T06:33:39.802Z,9.96
2022-11-16T06:34:48.579Z,9.77
2022-11-16T06:35:51.197Z,9.74
2022-11-16T06:36:56.793Z,9.75
2022-11-16T06:37:59.218Z,9.71
2022-11-16T06:39:02.269Z,9.76
2022-11-16T06:40:07.843Z,9.83
2022-11-16T06:41:12.826Z,9.88
2022-11-16T06:42:19.801Z,9.92
2022-11-16T06:43:22.572Z,9.91
2022-11-16T06:44:25.483Z,9.91
2022-11-16T06:45:33.012Z,9.91
2022-11-16T06:46:36.573Z,9.92
2022-11-16T06:47:39.447Z,9.92
2022-11-16T06:48:42.272Z,9.98
2022-11-16T06:49:47.910Z,10.05
2022-11-16T06:50:55.826Z,10.05
2022-11-16T06:51:58.197Z,10.04
2022-11-16T06:53:01.238Z,10.06
2022-11-16T06:54:04.850Z,10.01
2022-11-16T06:55:07.387Z,9.90
2022-11-16T06:56:14.143Z,9.96
2022-11-16T06:57:21.485Z,9.91
2022-11-16T06:58:23.737Z,9.93
2022-11-16T06:59:25.921Z,9.97
2022-11-16T07:00:28.152Z,9.99
2022-11-16T07:01:31.533Z,9.98
2022-11-16T07:02:40.262Z,9.91
2022-11-16T07:03:46.439Z,9.78
2022-11-16T07:04:49.208Z,9.81
2022-11-16T07:05:51.740Z,9.72
2022-11-16T07:06:55.136Z,9.71
2022-11-16T07:07:57.991Z,9.75
2022-11-16T07:09:00.759Z,9.79
2022-11-16T07:10:06.517Z,9.87
2022-11-16T07:11:09.866Z,9.92
2022-11-16T07:12:12.009Z,9.96
2022-11-16T07:13:15.753Z,10.04
2022-11-16T07:14:18.719Z,10.12
2022-11-16T07:15:21.278Z,10.12
2022-11-16T07:16:24.197Z,10.16
2022-11-16T07:17:33.024Z,10.17
2022-11-16T07:18:37.406Z,10.24
2022-11-16T07:19:40.455Z,10.18
2022-11-16T07:20:43.058Z,10.25
2022-11-16T07:21:45.255Z,10.23
2022-11-16T07:22:52.482Z,10.19
2022-11-16T07:23:54.940Z,10.11
2022-11-16T07:24:58.039Z,10.11
2022-11-16T07:26:06.062Z,10.09
2022-11-16T07:27:16.368Z,10.08
2022-11-16T07:28:21.522Z,10.08
2022-11-16T07:29:24.453Z,10.20
2022-11-16T07:30:48.066Z,10.27
2022-11-16T07:31:56.314Z,10.23
2022-11-16T07:33:10.331Z,10.14
2022-11-16T07:34:31.139Z,10.25
2022-11-16T07:35:46.462Z,10.39
2022-11-16T07:36:48.643Z,10.44
2022-11-16T07:37:52.308Z,10.35
2022-11-16T07:38:56.530Z,10.30
2022-11-16T07:39:59.741Z,10.39
2022-11-16T07:41:03.578Z,10.43
2022-11-16T07:42:11.617Z,10.42
2022-11-16T07:43:40.500Z,10.46
2022-11-16T07:44:47.612Z,10.54
2022-11-16T07:45:52.332Z,10.50
2022-11-16T07:46:55.138Z,10.55
2022-11-16T07:47:58.114Z,10.64
2022-11-16T07:49:20.317Z,10.80
2022-11-16T07:50:29.471Z,10.72
2022-11-16T07:51:32.191Z,10.69
2022-11-16T07:52:47.586Z,10.74
2022-11-16T07:53:56.916Z,10.79
2022-11-16T07:54:59.082Z,10.78
2022-11-16T07:56:04.083Z,10.65
2022-11-16T07:57:08.596Z,10.57
2022-11-16T07:58:10.915Z,10.65
2022-11-16T07:59:13.920Z,10.80
2022-11-16T08:00:19.586Z,10.87
2022-11-16T08:01:30.496Z,10.88
2022-11-16T08:02:32.672Z,11.00
2022-11-16T08:03:36.024Z,11.24
2022-11-16T08:04:40.642Z,11.70
2022-11-16T08:05:44.658Z,12.23
2022-11-16T08:06:49.994Z,12.12
2022-11-16T08:07:53.405Z,11.69
2022-11-16T08:08:59.470Z,11.41
2022-11-16T08:10:02.331Z,11.37
2022-11-16T08:11:07.390Z,11.24
2022-11-16T08:12:09.627Z,11.36
2022-11-16T08:13:11.971Z,11.38
2022-11-16T08:14:18.502Z,11.42
2022-11-16T08:15:24.111Z,11.38
2022-11-16T08:16:26.902Z,11.36
2022-11-16T08:17:36.085Z,11.35
2022-11-16T08:18:41.702Z,11.31
2022-11-16T08:19:43.962Z,11.39
2022-11-16T08:20:49.142Z,11.40
2022-11-16T08:21:51.415Z,11.17
2022-11-16T08:22:59.248Z,11.26
2022-11-16T08:24:01.543Z,11.53
2022-11-16T08:25:05.843Z,11.76
2022-11-16T08:26:11.021Z,11.97
2022-11-16T08:27:15.324Z,12.08
2022-11-16T08:28:18.829Z,12.27
2022-11-16T08:29:21.257Z,12.05
2022-11-16T08:30:26.062Z,11.96
2022-11-16T08:31:29.229Z,11.93
2022-11-16T08:32:48.086Z,11.86
2022-11-16T08:33:52.079Z,12.05
2022-11-16T08:34:54.763Z,12.20
2022-11-16T08:35:58.647Z,12.26
2022-11-16T08:37:00.913Z,12.33
2022-11-16T08:38:15.530Z,12.28
2022-11-16T08:39:17.789Z,12.37
2022-11-16T08:40:20.067Z,12.15
2022-11-16T08:41:23.932Z,12.30
2022-11-16T08:42:26.165Z,12.27
2022-11-16T08:43:30.921Z,12.35
2022-11-16T08:44:33.069Z,12.59
2022-11-16T08:45:39.383Z,12.79
2022-11-16T08:46:41.642Z,12.78
2022-11-16T08:48:03.952Z,12.71
2022-11-16T08:49:08.972Z,12.72
2022-11-16T08:50:11.259Z,12.81
2022-11-16T08:51:19.441Z,12.85
2022-11-16T08:52:28.246Z,12.90
2022-11-16T08:53:31.482Z,12.92
2022-11-16T08:54:33.714Z,12.75
2022-11-16T08:55:36.065Z,12.66
2022-11-16T08:56:38.394Z,12.66
2022-11-16T08:57:41.187Z,12.65
2022-11-16T08:58:47.408Z,12.50
2022-11-16T08:59:50.223Z,12.35
2022-11-16T09:00:52.579Z,12.40
2022-11-16T09:01:54.958Z,12.49
2022-11-16T09:02:57.221Z,12.51
2022-11-16T09:04:00.225Z,12.66
2022-11-16T09:05:03.530Z,12.71
2022-11-16T09:06:08.039Z,12.69
2022-11-16T09:07:10.486Z,12.83
2022-11-16T09:08:12.785Z,12.70
2022-11-16T09:09:15.089Z,12.69
2022-11-16T09:10:22.817Z,12.91
2022-11-16T09:11:25.622Z,13.10
2022-11-16T09:12:27.766Z,13.17
2022-11-16T09:13:29.941Z,13.19
2022-11-16T09:14:32.369Z,13.35
2022-11-16T09:15:35.069Z,13.70
2022-11-16T09:16:37.316Z,14.32
2022-11-16T09:17:39.444Z,14.62
2022-11-16T09:18:42.073Z,14.23
2022-11-16T09:19:44.262Z,14.14
2022-11-16T09:20:46.490Z,14.69
2022-11-16T09:21:48.874Z,14.77
2022-11-16T09:22:51.235Z,14.66
2022-11-16T09:23:54.711Z,14.55
2022-11-16T09:24:56.913Z,14.92
2022-11-16T09:26:04.209Z,14.96
2022-11-16T09:27:06.765Z,14.49
2022-11-16T09:28:08.980Z,14.99
2022-11-16T09:29:13.202Z,14.88
2022-11-16T09:30:16.281Z,15.12
2022-11-16T09:31:23.160Z,14.94
2022-11-16T09:32:25.804Z,14.87
2022-11-16T09:33:30.114Z,14.89
2022-11-16T09:34:34.843Z,14.40
2022-11-16T09:35:37.243Z,14.06
2022-11-16T09:36:39.550Z,14.62
2022-11-16T09:37:41.716Z,14.97
2022-11-16T09:40:08.827Z,14.54
2022-11-16T09:41:16.714Z,14.20
2022-11-16T09:42:34.250Z,14.54
2022-11-16T09:43:50.923Z,14.48
2022-11-16T09:45:08.343Z,14.48
2022-11-16T09:46:39.599Z,14.66
2022-11-16T09:47:59.218Z,14.92
2022-11-16T09:49:17.285Z,15.02
2022-11-16T09:50:35.874Z,15.13
2022-11-16T09:51:42.000Z,15.18
2022-11-16T09:52:48.095Z,15.01
2022-11-16T09:53:56.566Z,15.02
2022-11-16T09:55:03.842Z,15.00
2022-11-16T09:56:25.663Z,14.38
2022-11-16T09:57:34.231Z,14.54
2022-11-16T09:58:49.922Z,14.51
2022-11-16T09:59:58.316Z,14.68
2022-11-16T10:01:07.644Z,14.60
2022-11-16T10:02:32.841Z,14.28
2022-11-16T10:03:42.627Z,13.97
2022-11-16T10:05:10.574Z,13.96
2022-11-16T10:06:47.183Z,13.74
2022-11-16T10:07:54.841Z,13.87
2022-11-16T10:08:57.114Z,14.01
2022-11-16T10:09:59.903Z,14.20
2022-11-16T10:11:04.915Z,13.94
2022-11-16T10:12:38.749Z,13.73
2022-11-16T10:14:04.399Z,13.76
2022-11-16T10:15:15.531Z,13.93
2022-11-16T10:16:24.003Z,14.44
2022-11-16T10:17:33.176Z,14.68
2022-11-16T10:18:53.874Z,14.79
2022-11-16T10:20:07.727Z,14.40
2022-11-16T10:21:09.989Z,14.68
2022-11-16T10:22:33.654Z,14.36
2022-11-16T10:23:57.491Z,14.73
2022-11-16T10:25:07.164Z,14.98
2022-11-16T10:26:32.096Z,15.10
2022-11-16T10:27:39.942Z,15.67
2022-11-16T10:29:01.160Z,15.85
2022-11-16T10:30:09.452Z,15.85
2022-11-16T10:31:25.457Z,15.28
2022-11-16T10:32:39.423Z,14.43
2022-11-16T10:33:46.185Z,15.17
2022-11-16T10:34:53.264Z,15.01
2022-11-16T10:35:55.976Z,14.53
2022-11-16T10:37:07.654Z,14.38
2022-11-16T10:38:33.878Z,14.40
2022-11-16T10:39:40.799Z,14.65
2022-11-16T10:40:49.472Z,14.61
2022-11-16T10:41:51.869Z,14.62
2022-11-16T10:43:03.984Z,15.03
2022-11-16T10:44:16.263Z,14.48
2022-11-16T10:45:33.642Z,14.53
2022-11-16T10:46:40.199Z,14.44
2022-11-16T10:48:04.002Z,14.64
2022-11-16T10:49:22.468Z,14.44
2022-11-16T10:50:32.891Z,14.35
2022-11-16T10:51:35.162Z,14.27
2022-11-16T10:52:37.348Z,14.38
2022-11-16T10:53:43.683Z,14.79
2022-11-16T10:54:45.908Z,14.57
2022-11-16T10:56:12.775Z,14.79
2022-11-16T10:57:15.111Z,15.20
2022-11-16T10:58:17.285Z,15.33
2022-11-16T10:59:19.778Z,15.34
2022-11-16T11:00:40.304Z,15.34
2022-11-16T11:01:50.372Z,15.20
2022-11-16T11:02:52.587Z,15.03
2022-11-16T11:03:55.054Z,15.09
2022-11-16T11:05:20.222Z,15.15
2022-11-16T11:06:27.096Z,14.80
2022-11-16T11:07:35.568Z,14.71
2022-11-16T11:08:37.812Z,14.50
2022-11-16T11:09:42.191Z,14.46
2022-11-16T11:11:01.507Z,14.55
2022-11-16T11:12:35.752Z,14.15
2022-11-16T11:13:37.953Z,14.45
2022-11-16T11:14:40.299Z,14.71
2022-11-16T11:15:43.516Z,14.98
2022-11-16T11:16:45.756Z,15.02
2022-11-16T11:17:50.001Z,15.03
2022-11-16T11:18:52.216Z,15.24
2022-11-16T11:20:07.972Z,14.90
2022-11-16T11:21:21.308Z,14.93
2022-11-16T11:22:23.487Z,15.01
2022-11-16T11:23:27.328Z,15.12
2022-11-16T11:24:43.960Z,15.38
2022-11-16T11:26:05.230Z,15.53
2022-11-16T11:27:07.548Z,15.49
2022-11-16T11:28:32.513Z,15.34
2022-11-16T11:29:37.909Z,15.42
2022-11-16T11:30:40.312Z,15.19
2022-11-16T11:31:48.889Z,15.28
2022-11-16T11:32:52.818Z,14.95
2022-11-16T11:33:59.062Z,14.77
2022-11-16T11:35:02.839Z,14.64
2022-11-16T11:36:18.511Z,14.32
2022-11-16T11:37:30.435Z,14.52
2022-11-16T11:38:34.501Z,14.53
2022-11-16T11:39:37.297Z,14.74
2022-11-16T11:40:56.447Z,14.44
2022-11-16T11:42:14.278Z,14.47
2022-11-16T11:43:24.316Z,14.27
2022-11-16T11:44:42.529Z,14.32
2022-11-16T11:46:09.506Z,14.53
2022-11-16T11:47:56.857Z,14.51
2022-11-16T11:48:54.212Z,14.06
2022-11-16T11:50:19.886Z,14.33
2022-11-16T11:51:35.618Z,14.43
2022-11-16T11:52:50.027Z,14.20
2022-11-16T11:53:56.532Z,14.28
2022-11-16T11:55:01.037Z,14.20
2022-11-16T11:56:03.759Z,13.90
2022-11-16T11:57:15.486Z,14.20
2022-11-16T11:58:18.604Z,14.23
2022-11-16T11:59:25.122Z,14.20
2022-11-16T12:00:35.993Z,14.13
2022-11-16T12:02:10.761Z,14.29
2022-11-16T12:03:38.281Z,14.25
2022-11-16T12:04:40.405Z,14.46
2022-11-16T12:05:47.630Z,14.43
2022-11-16T12:07:05.403Z,14.61
2022-11-16T12:08:38.463Z,14.55
2022-11-16T12:09:46.289Z,14.48
2022-11-16T12:11:00.324Z,14.60
2022-11-16T12:12:24.322Z,14.44
2022-11-16T12:13:44.784Z,14.61
2022-11-16T12:14:58.409Z,14.55
2022-11-16T12:16:26.743Z,14.61
2022-11-16T12:17:43.259Z,14.30
2022-11-16T12:18:57.180Z,14.28
2022-11-16T12:20:08.543Z,14.10
2022-11-16T12:21:17.747Z,14.31
2022-11-16T12:22:57.452Z,14.41
2022-11-16T12:24:24.951Z,14.27
2022-11-16T12:25:56.095Z,14.11
2022-11-16T12:27:26.825Z,14.12
2022-11-16T12:28:51.021Z,14.24
2022-11-16T12:29:53.501Z,14.23
2022-11-16T12:31:27.193Z,13.98
2022-11-16T12:32:41.054Z,13.92
2022-11-16T12:33:45.769Z,13.99
2022-11-16T12:34:59.795Z,14.13
2022-11-16T12:36:21.198Z,14.22
2022-11-16T12:37:35.343Z,14.21
2022-11-16T12:38:54.950Z,14.34
2022-11-16T12:40:27.904Z,14.08
2022-11-16T12:41:48.422Z,13.93
2022-11-16T12:43:21.093Z,13.81
2022-11-16T12:44:34.587Z,13.94
2022-11-16T12:46:17.136Z,13.76
2022-11-16T12:47:25.944Z,13.73
2022-11-16T12:48:59.155Z,13.59
2022-11-16T12:50:01.255Z,13.44
2022-11-16T12:51:16.143Z,13.28
2022-11-16T12:52:44.977Z,13.30
2022-11-16T12:54:13.894Z,13.36
2022-11-16T12:55:37.882Z,13.50
2022-11-16T12:57:01.659Z,13.73
2022-11-16T12:58:26.226Z,13.70
2022-11-16T12:59:46.415Z,13.60
2022-11-16T13:01:12.189Z,13.56
2022-11-16T13:02:23.092Z,13.66
2022-11-16T13:03:35.842Z,13.91
2022-11-16T13:04:45.739Z,14.05
2022-11-16T13:06:09.986Z,14.13
2022-11-16T13:07:12.138Z,14.09
2022-11-16T13:08:37.041Z,14.22
2022-11-16T13:09:48.792Z,14.46
2022-11-16T13:11:07.762Z,14.51
2022-11-16T13:12:17.051Z,14.51
2022-11-16T13:13:41.451Z,14.63
2022-11-16T13:14:49.607Z,14.83
2022-11-16T13:15:53.010Z,14.93
2022-11-16T13:16:57.052Z,15.07
2022-11-16T13:18:02.371Z,14.89
2022-11-16T13:19:10.106Z,15.04
2022-11-16T13:20:32.433Z,15.13
2022-11-16T13:21:55.089Z,15.13
2022-11-16T13:23:09.994Z,15.34
2022-11-16T13:24:30.689Z,15.07
2022-11-16T13:25:53.811Z,15.06
2022-11-16T13:27:24.182Z,15.11
2022-11-16T13:28:38.383Z,15.36
2022-11-16T13:29:51.744Z,15.36
2022-11-16T13:31:20.841Z,15.20
2022-11-16T13:32:32.944Z,15.39
2022-11-16T13:33:49.341Z,15.09
2022-11-16T13:34:54.038Z,14.84
2022-11-16T13:35:56.365Z,14.78
2022-11-16T13:36:58.826Z,14.99
2022-11-16T13:38:01.462Z,15.20
2022-11-16T13:39:05.418Z,15.34
2022-11-16T13:40:08.466Z,15.11
2022-11-16T13:41:37.428Z,14.94
2022-11-16T13:42:57.321Z,14.80
2022-11-16T13:44:00.241Z,14.78
2022-11-16T13:45:19.182Z,14.99
2022-11-16T13:46:53.660Z,14.80
2022-11-16T13:47:56.010Z,14.59
2022-11-16T13:48:59.509Z,14.35
2022-11-16T13:50:05.193Z,14.34
2022-11-16T13:51:17.422Z,14.56
2022-11-16T13:52:28.629Z,14.68
2022-11-16T13:55:14.820Z,14.08
2022-11-16T13:56:18.106Z,14.14
2022-11-16T13:57:27.600Z,14.18
2022-11-16T13:58:31.807Z,14.17
2022-11-16T13:59:36.452Z,14.19
2022-11-16T14:00:40.427Z,14.07
2022-11-16T14:02:00.453Z,14.09
2022-11-16T14:03:17.667Z,14.07
2022-11-16T14:04:38.323Z,14.06
2022-11-16T14:05:45.462Z,13.93
2022-11-16T14:06:47.796Z,13.93
2022-11-16T14:07:52.039Z,13.69
2022-11-16T14:08:55.707Z,13.73
2022-11-16T14:10:01.206Z,13.81
2022-11-16T14:11:03.861Z,13.90
2022-11-16T14:12:43.304Z,13.80
2022-11-16T14:13:47.211Z,13.57
2022-11-16T14:15:16.123Z,13.67
2022-11-16T14:16:19.359Z,13.57
2022-11-16T14:17:50.914Z,13.53
2022-11-16T14:18:53.153Z,13.47
2022-11-16T14:19:55.582Z,13.44
2022-11-16T14:21:31.417Z,13.40
2022-11-16T14:22:46.051Z,13.52
2022-11-16T14:24:06.749Z,13.55
2022-11-16T14:25:37.434Z,13.60
2022-11-16T14:27:18.621Z,13.70
2022-11-16T14:28:46.029Z,13.73
2022-11-16T14:30:09.149Z,13.72
2022-11-16T14:31:27.655Z,13.80
2022-11-16T14:32:43.001Z,13.78
2022-11-16T14:33:51.418Z,13.90
2022-11-16T14:34:56.861Z,13.97
2022-11-16T14:36:00.846Z,14.00
2022-11-16T14:37:03.244Z,13.90
2022-11-16T14:38:26.729Z,13.83
2022-11-16T14:39:41.046Z,13.84
2022-11-16T14:40:46.690Z,13.85
2022-11-16T14:41:49.166Z,13.72
2022-11-16T14:43:22.753Z,13.63
2022-11-16T14:44:28.436Z,13.69
2022-11-16T14:45:33.364Z,13.56
2022-11-16T14:46:36.997Z,13.59
2022-11-16T14:47:39.467Z,13.67
2022-11-16T14:48:45.624Z,13.67
2022-11-16T14:49:48.804Z,13.65
2022-11-16T14:51:02.896Z,13.41
2022-11-16T14:52:08.150Z,13.43
2022-11-16T14:53:17.590Z,13.46
2022-11-16T14:54:32.419Z,13.45
2022-11-16T14:55:41.894Z,13.44
2022-11-16T14:57:02.520Z,13.37
2022-11-16T14:58:08.734Z,13.37